Time;durP1;ratioP1;P1;durP2;ratioP2;P2;SDS_P1;SDS_P2;PMS_P1;PMS_P2;Temp;Humidity;BMP_temperature;BMP_pressure;BME280_temperature;BME280_humidity;BME280_pressure;Samples;Min_cycle;Max_cycle;Signal;HPM_P1;HPM_P2
2023/04/01 00:01:16;;;;;;;3.47;1.88;;;;;;;;;;5016675;28;20029;-68
2023/04/01 00:03:43;;;;;;;5.30;2.03;;;;;;;;;;5017548;28;20061;-68
2023/04/01 00:06:19;;;;;;;7.30;2.15;;;;;;;;;;5015609;28;20029;-69
2023/04/01 00:08:46;;;;;;;1.83;1.42;;;;;;;;;;5019456;28;20049;-67
2023/04/01 00:11:13;;;;;;;2.00;1.40;;;;;;;;;;5024882;28;20065;-68
2023/04/01 00:13:40;;;;;;;5.65;1.40;;;;;;;;;;5027244;28;20030;-68
2023/04/01 00:16:06;;;;;;;3.47;1.95;;;;;;;;;;5015592;28;20095;-68
2023/04/01 00:18:33;;;;;;;2.42;1.50;;;;;;;;;;5027792;28;20486;-68
2023/04/01 00:21:00;;;;;;;2.60;1.55;;;;;;;;;;5027794;28;20032;-68
2023/04/01 00:23:26;;;;;;;2.97;1.63;;;;;;;;;;5027613;28;20029;-66
2023/04/01 00:25:53;;;;;;;6.13;1.88;;;;;;;;;;5031036;28;20095;-67
2023/04/01 00:28:20;;;;;;;3.72;1.75;;;;;;;;;;5032911;28;20082;-66
2023/04/01 00:30:47;;;;;;;3.08;1.55;;;;;;;;;;5030185;28;20057;-69
2023/04/01 00:33:14;;;;;;;2.72;1.42;;;;;;;;;;5032873;28;20372;-68
2023/04/01 00:35:41;;;;;;;2.97;1.80;;;;;;;;;;5027992;28;20028;-69
2023/04/01 00:38:08;;;;;;;6.43;1.70;;;;;;;;;;5014372;28;20033;-69
2023/04/01 00:40:39;;;;;;;9.30;2.55;;;;;;;;;;5023532;28;20029;-68
2023/04/01 00:43:20;;;;;;;4.07;1.90;;;;;;;;;;5012941;28;20068;-68
2023/04/01 00:45:49;;;;;;;3.20;2.38;;;;;;;;;;5020760;28;20022;-68
2023/04/01 00:48:23;;;;;;;31.55;2.67;;;;;;;;;;5010920;28;20033;-68
2023/04/01 00:50:57;;;;;;;6.10;2.45;;;;;;;;;;5015879;28;20461;-68
2023/04/01 00:53:23;;;;;;;;;;;;;;;;;;5031856;28;20027;-68
2023/04/01 00:56:05;;;;;;;3.50;2.15;;;;;;;;;;5014079;28;19910;-68
2023/04/01 00:58:36;;;;;;;3.08;2.03;;;;;;;;;;5012864;28;20079;-67
2023/04/01 01:01:02;;;;;;;3.63;2.30;;;;;;;;;;5022477;28;20029;-69
2023/04/01 01:03:30;;;;;;;7.28;3.35;;;;;;;;;;5007305;28;20030;-66
2023/04/01 01:06:03;;;;;;;7.20;3.00;;;;;;;;;;5015279;28;20021;-69
2023/04/01 01:08:37;;;;;;;5.13;2.63;;;;;;;;;;5026996;28;20128;-68
2023/04/01 01:11:06;;;;;;;6.05;3.38;;;;;;;;;;5029063;28;20041;-68
2023/04/01 01:13:32;;;;;;;2.58;2.17;;;;;;;;;;5012653;28;20030;-68
2023/04/01 01:16:02;;;;;;;3.97;2.30;;;;;;;;;;5027596;28;20104;-68
2023/04/01 01:18:31;;;;;;;6.85;2.75;;;;;;;;;;5012175;28;20508;-67
2023/04/01 01:20:57;;;;;;;5.05;3.13;;;;;;;;;;5020114;28;20480;-68
2023/04/01 01:23:42;;;;;;;5.95;2.30;;;;;;;;;;5008415;28;20551;-69
2023/04/01 01:26:28;;;;;;;2.95;2.38;;;;;;;;;;5016301;28;20029;-68
2023/04/01 01:29:06;;;;;;;5.15;3.03;;;;;;;;;;5026770;28;20061;-69
2023/04/01 01:31:37;;;;;;;3.57;2.70;;;;;;;;;;5016325;28;20033;-69
2023/04/01 01:34:13;;;;;;;7.17;2.90;;;;;;;;;;5031929;28;20034;-67
2023/04/01 01:36:42;;;;;;;4.87;3.03;;;;;;;;;;5018049;28;20026;-67
2023/04/01 01:39:09;;;;;;;6.13;2.63;;;;;;;;;;5012313;28;20018;-67
2023/04/01 01:41:37;;;;;;;6.40;2.97;;;;;;;;;;5021622;28;20480;-68
2023/04/01 01:44:05;;;;;;;7.70;3.50;;;;;;;;;;5011599;28;20057;-68
2023/04/01 01:46:32;;;;;;;23.27;2.83;;;;;;;;;;5018870;28;20057;-68
2023/04/01 01:48:59;;;;;;;6.10;3.63;;;;;;;;;;5010460;28;20045;-68
2023/04/01 01:51:27;;;;;;;7.17;3.70;;;;;;;;;;5024126;28;20340;-68
2023/04/01 01:53:54;;;;;;;7.60;3.27;;;;;;;;;;5026680;28;20033;-67
2023/04/01 01:56:23;;;;;;;5.10;3.30;;;;;;;;;;5024275;28;20017;-68
2023/04/01 01:58:52;;;;;;;7.30;3.70;;;;;;;;;;5015934;28;20026;-68
2023/04/01 02:01:22;;;;;;;9.00;3.67;;;;;;;;;;5025741;28;20026;-68
2023/04/01 02:03:49;;;;;;;8.10;3.37;;;;;;;;;;5019628;28;20033;-68
2023/04/01 02:06:18;;;;;;;6.77;4.17;;;;;;;;;;5027748;28;20085;-67
2023/04/01 02:08:45;;;;;;;9.20;4.53;;;;;;;;;;5010234;28;20508;-68
2023/04/01 02:11:16;;;;;;;5.40;3.73;;;;;;;;;;5011479;28;20107;-68
2023/04/01 02:13:53;;;;;;;8.33;4.00;;;;;;;;;;5010546;28;20038;-68
2023/04/01 02:16:23;;;;;;;7.83;3.87;;;;;;;;;;5011338;28;20034;-67
2023/04/01 02:18:53;;;;;;;5.07;3.97;;;;;;;;;;5016597;28;20473;-68
2023/04/01 02:21:21;;;;;;;14.37;4.33;;;;;;;;;;5023780;28;20758;-68
2023/04/01 02:23:48;;;;;;;7.63;4.37;;;;;;;;;;5022717;28;20505;-67
2023/04/01 02:26:15;;;;;;;7.67;4.40;;;;;;;;;;5016347;28;20028;-67
2023/04/01 02:28:42;;;;;;;11.27;4.90;;;;;;;;;;5015444;28;20084;-67
2023/04/01 02:31:10;;;;;;;7.40;4.03;;;;;;;;;;5019521;28;20044;-67
2023/04/01 02:33:38;;;;;;;9.27;4.83;;;;;;;;;;5025261;28;20506;-68
2023/04/01 02:36:05;;;;;;;6.13;4.00;;;;;;;;;;5015864;28;20028;-67
2023/04/01 02:38:33;;;;;;;9.67;4.40;;;;;;;;;;5029934;28;20447;-67
2023/04/01 02:41:01;;;;;;;8.37;4.13;;;;;;;;;;5025778;28;20029;-68
2023/04/01 02:43:28;;;;;;;7.87;4.73;;;;;;;;;;5028506;28;20026;-67
2023/04/01 02:45:55;;;;;;;8.67;4.97;;;;;;;;;;5017743;28;20041;-67
2023/04/01 02:48:21;;;;;;;6.70;4.13;;;;;;;;;;5035071;28;20021;-67
2023/04/01 02:50:48;;;;;;;5.80;4.30;;;;;;;;;;5033024;28;20033;-67
2023/04/01 02:53:15;;;;;;;6.77;4.90;;;;;;;;;;5010293;28;20650;-68
2023/04/01 02:55:42;;;;;;;6.67;4.27;;;;;;;;;;5011269;28;20512;-68
2023/04/01 02:58:08;;;;;;;5.37;3.43;;;;;;;;;;5026148;28;20029;-68
2023/04/01 03:00:35;;;;;;;7.27;4.87;;;;;;;;;;5014065;28;20034;-68
2023/04/01 03:03:02;;;;;;;4.53;4.00;;;;;;;;;;5015987;28;20032;-68
2023/04/01 03:05:29;;;;;;;5.93;4.17;;;;;;;;;;5019088;28;20044;-67
2023/04/01 03:07:56;;;;;;;7.90;4.30;;;;;;;;;;5033832;28;20025;-67
2023/04/01 03:10:23;;;;;;;10.00;3.70;;;;;;;;;;5032357;28;20481;-68
2023/04/01 03:12:50;;;;;;;5.57;4.17;;;;;;;;;;5019164;28;20030;-68
2023/04/01 03:15:17;;;;;;;7.13;4.63;;;;;;;;;;5022712;28;20026;-67
2023/04/01 03:17:44;;;;;;;9.97;4.87;;;;;;;;;;5012755;28;20552;-68
2023/04/01 03:20:11;;;;;;;4.97;3.60;;;;;;;;;;5010678;28;20053;-68
2023/04/01 03:22:38;;;;;;;6.30;4.83;;;;;;;;;;5015382;28;20030;-67
2023/04/01 03:25:08;;;;;;;6.00;4.23;;;;;;;;;;5012570;28;20480;-67
2023/04/01 03:27:35;;;;;;;8.67;4.67;;;;;;;;;;5030307;28;20112;-67
2023/04/01 03:30:03;;;;;;;16.07;5.30;;;;;;;;;;5031471;28;20040;-67
2023/04/01 03:32:30;;;;;;;4.43;3.53;;;;;;;;;;5025911;28;20044;-67
2023/04/01 03:34:57;;;;;;;5.70;4.53;;;;;;;;;;5028603;28;20029;-67
2023/04/01 03:37:24;;;;;;;7.13;4.87;;;;;;;;;;5018944;28;20108;-68
2023/04/01 03:39:51;;;;;;;6.97;4.67;;;;;;;;;;5016319;28;20037;-67
2023/04/01 03:42:17;;;;;;;8.13;4.67;;;;;;;;;;5013991;28;20032;-67
2023/04/01 03:44:44;;;;;;;7.77;4.43;;;;;;;;;;5024600;28;20033;-67
2023/04/01 03:47:11;;;;;;;7.97;4.30;;;;;;;;;;5016514;28;20032;-67
2023/04/01 03:49:37;;;;;;;6.53;4.27;;;;;;;;;;5033603;28;20482;-67
2023/04/01 03:52:04;;;;;;;6.63;4.80;;;;;;;;;;5028223;28;20488;-67
2023/04/01 03:54:31;;;;;;;6.20;4.27;;;;;;;;;;5024814;28;20383;-67
2023/04/01 03:56:58;;;;;;;7.23;4.27;;;;;;;;;;5026920;28;20365;-67
2023/04/01 03:59:25;;;;;;;6.20;4.63;;;;;;;;;;5031256;28;20045;-67
2023/04/01 04:01:52;;;;;;;6.00;4.67;;;;;;;;;;5017224;28;21468;-67
2023/04/01 04:04:19;;;;;;;7.57;4.67;;;;;;;;;;5012307;28;20121;-67
2023/04/01 04:06:45;;;;;;;13.13;4.53;;;;;;;;;;5011697;28;20045;-68
2023/04/01 04:09:12;;;;;;;11.53;5.10;;;;;;;;;;5023437;28;20087;-67
2023/04/01 04:11:39;;;;;;;9.20;4.53;;;;;;;;;;5013413;28;20391;-67
2023/04/01 04:14:06;;;;;;;5.57;4.17;;;;;;;;;;5025922;28;20432;-67
2023/04/01 04:16:32;;;;;;;7.07;5.70;;;;;;;;;;5017205;28;20052;-67
2023/04/01 04:18:59;;;;;;;7.57;5.30;;;;;;;;;;5028624;28;20026;-67
2023/04/01 04:21:26;;;;;;;10.33;4.80;;;;;;;;;;5013661;28;20472;-67
2023/04/01 04:23:53;;;;;;;5.13;3.90;;;;;;;;;;5020465;28;20064;-68
2023/04/01 04:26:19;;;;;;;5.73;3.90;;;;;;;;;;5017801;28;20033;-67
2023/04/01 04:28:46;;;;;;;9.17;4.37;;;;;;;;;;5013777;28;20116;-67
2023/04/01 04:31:18;;;;;;;8.33;5.20;;;;;;;;;;5009268;28;20022;-67
2023/04/01 04:33:45;;;;;;;5.90;4.60;;;;;;;;;;5032947;28;20033;-67
2023/04/01 04:36:11;;;;;;;8.13;5.23;;;;;;;;;;5018017;28;20428;-67
2023/04/01 04:38:38;;;;;;;13.57;4.47;;;;;;;;;;5030722;28;20112;-67
2023/04/01 04:41:09;;;;;;;9.10;5.40;;;;;;;;;;5030490;28;20076;-68
2023/04/01 04:43:36;;;;;;;6.30;4.27;;;;;;;;;;5025160;28;20366;-67
2023/04/01 04:46:05;;;;;;;7.70;5.37;;;;;;;;;;5007760;28;20121;-67
2023/04/01 04:48:32;;;;;;;4.43;3.50;;;;;;;;;;5007462;28;20076;-67
2023/04/01 04:50:59;;;;;;;8.43;5.47;;;;;;;;;;5012017;28;20025;-67
2023/04/01 04:53:26;;;;;;;4.27;3.63;;;;;;;;;;5025341;28;20041;-67
2023/04/01 04:55:53;;;;;;;5.60;3.50;;;;;;;;;;5032543;28;20029;-68
2023/04/01 04:58:20;;;;;;;6.67;3.60;;;;;;;;;;5016740;28;20380;-69
2023/04/01 05:00:47;;;;;;;14.53;2.33;;;;;;;;;;5017966;28;20052;-66
2023/04/01 05:03:13;;;;;;;8.73;3.50;;;;;;;;;;5017208;28;20026;-66
2023/04/01 05:05:40;;;;;;;8.23;4.00;;;;;;;;;;5012671;28;20377;-66
2023/04/01 05:08:07;;;;;;;4.10;3.00;;;;;;;;;;5008279;28;20420;-67
2023/04/01 05:10:34;;;;;;;3.93;2.97;;;;;;;;;;5007253;28;20109;-67
2023/04/01 05:13:00;;;;;;;8.43;3.87;;;;;;;;;;5009972;28;20037;-66
2023/04/01 05:15:27;;;;;;;6.13;3.67;;;;;;;;;;5023056;28;20026;-66
2023/04/01 05:17:54;;;;;;;8.00;3.57;;;;;;;;;;5017651;28;20069;-66
2023/04/01 05:20:20;;;;;;;6.17;4.07;;;;;;;;;;5032320;28;20029;-66
2023/04/01 05:22:47;;;;;;;3.80;2.80;;;;;;;;;;5029794;28;20093;-67
2023/04/01 05:25:14;;;;;;;6.87;2.87;;;;;;;;;;5032161;28;20841;-67
2023/04/01 05:27:41;;;;;;;3.40;2.40;;;;;;;;;;5023607;28;20037;-67
2023/04/01 05:30:08;;;;;;;5.33;3.03;;;;;;;;;;5022491;28;20101;-67
2023/04/01 05:32:34;;;;;;;4.80;3.13;;;;;;;;;;5019948;28;20036;-67
2023/04/01 05:35:01;;;;;;;4.20;2.97;;;;;;;;;;5023611;28;20025;-68
2023/04/01 05:37:28;;;;;;;5.67;3.07;;;;;;;;;;5020249;28;20116;-68
2023/04/01 05:39:55;;;;;;;3.77;2.70;;;;;;;;;;5014786;28;20148;-68
2023/04/01 05:42:21;;;;;;;6.03;3.10;;;;;;;;;;5017843;28;20022;-67
2023/04/01 05:44:48;;;;;;;4.20;2.70;;;;;;;;;;5028593;28;20041;-68
2023/04/01 05:47:15;;;;;;;3.97;2.83;;;;;;;;;;5019572;28;20121;-68
2023/04/01 05:49:41;;;;;;;4.93;2.63;;;;;;;;;;5035540;28;20021;-66
2023/04/01 05:52:08;;;;;;;9.43;2.63;;;;;;;;;;5029187;28;20079;-67
2023/04/01 05:54:35;;;;;;;3.50;2.70;;;;;;;;;;5018874;28;20030;-67
2023/04/01 05:57:02;;;;;;;3.70;2.67;;;;;;;;;;5021023;28;20030;-68
2023/04/01 05:59:30;;;;;;;2.23;1.83;;;;;;;;;;5020393;28;20540;-67
2023/04/01 06:01:57;;;;;;;3.40;2.50;;;;;;;;;;5022088;28;20036;-67
2023/04/01 06:04:25;;;;;;;3.67;2.17;;;;;;;;;;5029261;28;20496;-68
2023/04/01 06:06:52;;;;;;;3.33;2.33;;;;;;;;;;5032832;28;20029;-68
2023/04/01 06:09:29;;;;;;;4.87;2.63;;;;;;;;;;5022871;28;20029;-67
2023/04/01 06:12:14;;;;;;;8.33;2.73;;;;;;;;;;5024232;28;20285;-67
2023/04/01 06:14:50;;;;;;;4.70;2.73;;;;;;;;;;5016502;28;20116;-67
2023/04/01 06:17:25;;;;;;;4.27;2.37;;;;;;;;;;5013782;28;20034;-67
2023/04/01 06:20:05;;;;;;;11.13;3.17;;;;;;;;;;5024571;28;20542;-67
2023/04/01 06:22:37;;;;;;;4.37;3.17;;;;;;;;;;5024196;28;20021;-66
2023/04/01 06:25:19;;;;;;;5.97;3.33;;;;;;;;;;5030188;28;20112;-68
2023/04/01 06:27:51;;;;;;;14.77;4.10;;;;;;;;;;5016406;28;20029;-67
2023/04/01 06:30:28;;;;;;;6.07;3.50;;;;;;;;;;5015493;28;20100;-67
2023/04/01 06:33:07;;;;;;;5.77;3.70;;;;;;;;;;5031721;28;20036;-67
2023/04/01 06:36:06;;;;;;;5.50;3.10;;;;;;;;;;5018135;28;20068;-67
2023/04/01 06:38:41;;;;;;;6.43;2.67;;;;;;;;;;4996882;28;20074;-67
2023/04/01 06:41:08;;;;;;;3.50;2.53;;;;;;;;;;5027453;28;20029;-67
2023/04/01 06:43:40;;;;;;;3.43;2.57;;;;;;;;;;5008858;28;20026;-67
2023/04/01 06:46:27;;;;;;;4.40;2.87;;;;;;;;;;5027266;28;20037;-67
2023/04/01 06:48:53;;;;;;;8.57;2.73;;;;;;;;;;5014861;28;20033;-68
2023/04/01 06:51:23;;;;;;;4.73;2.93;;;;;;;;;;5026810;28;20025;-67
2023/04/01 06:53:55;;;;;;;5.53;3.13;;;;;;;;;;5015069;28;20096;-67
2023/04/01 06:56:26;;;;;;;6.53;3.13;;;;;;;;;;5033363;28;20497;-67
2023/04/01 06:58:53;;;;;;;6.07;3.20;;;;;;;;;;5017139;28;20523;-67
2023/04/01 07:01:40;;;;;;;5.37;3.10;;;;;;;;;;5012969;28;20026;-67
2023/04/01 07:04:13;;;;;;;5.10;2.30;;;;;;;;;;5025951;28;20506;-67
2023/04/01 07:06:59;;;;;;;3.43;2.40;;;;;;;;;;5010539;28;20025;-67
2023/04/01 07:09:35;;;;;;;5.67;2.90;;;;;;;;;;5025163;28;20449;-67
2023/04/01 07:12:05;;;;;;;4.70;3.27;;;;;;;;;;5017338;28;20037;-67
2023/04/01 07:14:37;;;;;;;6.53;3.17;;;;;;;;;;5028804;28;20026;-67
2023/04/01 07:17:13;;;;;;;6.27;3.40;;;;;;;;;;5014740;28;20030;-67
2023/04/01 07:19:48;;;;;;;3.30;2.27;;;;;;;;;;5018781;28;20033;-67
2023/04/01 07:22:17;;;;;;;2.67;1.87;;;;;;;;;;5019982;28;20033;-67
2023/04/01 07:24:45;;;;;;;4.23;2.63;;;;;;;;;;5021534;28;20041;-67
2023/04/01 07:27:12;;;;;;;4.30;2.23;;;;;;;;;;5018523;28;20104;-67
2023/04/01 07:29:40;;;;;;;4.67;2.40;;;;;;;;;;5022683;28;20025;-67
2023/04/01 07:32:24;;;;;;;3.90;2.50;;;;;;;;;;5015405;28;20038;-68
2023/04/01 07:35:03;;;;;;;4.15;2.42;;;;;;;;;;5026665;28;20453;-67
2023/04/01 07:37:50;;;;;;;10.37;3.43;;;;;;;;;;5018759;28;20057;-67
2023/04/01 07:40:20;;;;;;;3.70;2.77;;;;;;;;;;5022153;28;20064;-68
2023/04/01 07:42:47;;;;;;;4.63;3.30;;;;;;;;;;5019787;28;20092;-68
2023/04/01 07:45:16;;;;;;;5.50;2.87;;;;;;;;;;5019641;28;20029;-67
2023/04/01 07:47:43;;;;;;;3.13;2.20;;;;;;;;;;5021142;28;20053;-67
2023/04/01 07:50:10;;;;;;;3.30;2.10;;;;;;;;;;5011996;28;20026;-67
2023/04/01 07:52:52;;;;;;;2.47;2.03;;;;;;;;;;5012959;28;20107;-67
2023/04/01 07:55:30;;;;;;;4.27;2.03;;;;;;;;;;5033447;28;20564;-67
2023/04/01 07:58:04;;;;;;;2.87;2.13;;;;;;;;;;5029711;28;20037;-67
2023/04/01 08:00:31;;;;;;;4.93;2.47;;;;;;;;;;5013840;28;20543;-67
2023/04/01 08:03:07;;;;;;;3.27;2.47;;;;;;;;;;5017144;28;20384;-67
2023/04/01 08:05:50;;;;;;;4.57;2.23;;;;;;;;;;5011576;28;20041;-67
2023/04/01 08:08:17;;;;;;;3.37;2.27;;;;;;;;;;5009333;28;20041;-68
2023/04/01 08:10:50;;;;;;;2.50;1.90;;;;;;;;;;5021605;28;20029;-67
2023/04/01 08:13:40;;;;;;;4.60;2.87;;;;;;;;;;5026316;28;20365;-67
2023/04/01 08:16:16;;;;;;;9.97;2.50;;;;;;;;;;5010969;28;20026;-68
2023/04/01 08:19:09;;;;;;;3.43;2.17;;;;;;;;;;5021931;28;20112;-67
2023/04/01 08:21:42;;;;;;;4.17;2.43;;;;;;;;;;5014484;28;20484;-66
2023/04/01 08:24:34;;;;;;;2.70;2.37;;;;;;;;;;5030450;28;20388;-67
2023/04/01 08:27:02;;;;;;;6.37;3.10;;;;;;;;;;5014229;28;20030;-67
2023/04/01 08:29:39;;;;;;;5.20;2.37;;;;;;;;;;5023455;28;20188;-68
2023/04/01 08:32:08;;;;;;;1.93;1.60;;;;;;;;;;5027323;28;20030;-67
2023/04/01 08:34:37;;;;;;;3.10;1.63;;;;;;;;;;5024555;28;20376;-67
2023/04/01 08:37:17;;;;;;;3.20;1.97;;;;;;;;;;5007826;28;20056;-67
2023/04/01 08:39:49;;;;;;;2.23;1.60;;;;;;;;;;5014598;28;20108;-67
2023/04/01 08:42:25;;;;;;;3.60;1.73;;;;;;;;;;5032261;28;20427;-67
2023/04/01 08:44:52;;;;;;;4.83;2.10;;;;;;;;;;5032575;28;20108;-67
2023/04/01 08:47:32;;;;;;;11.77;2.60;;;;;;;;;;5032691;28;20021;-67
2023/04/01 08:50:11;;;;;;;4.03;2.73;;;;;;;;;;5031314;28;20097;-67
2023/04/01 08:52:38;;;;;;;4.67;3.07;;;;;;;;;;5027399;28;20025;-67
2023/04/01 08:55:20;;;;;;;3.73;2.33;;;;;;;;;;5027293;28;20025;-67
2023/04/01 08:57:46;;;;;;;2.73;1.90;;;;;;;;;;5027120;28;20022;-67
2023/04/01 09:00:13;;;;;;;2.90;2.27;;;;;;;;;;5028283;28;20029;-68
2023/04/01 09:03:00;;;;;;;6.63;3.23;;;;;;;;;;5032248;28;20055;-67
2023/04/01 09:05:37;;;;;;;4.37;2.33;;;;;;;;;;5032290;28;20455;-66
2023/04/01 09:08:11;;;;;;;5.57;2.50;;;;;;;;;;5032131;28;20025;-67
2023/04/01 09:10:56;;;;;;;3.87;2.60;;;;;;;;;;5032021;28;20368;-67
2023/04/01 09:13:26;;;;;;;4.47;2.53;;;;;;;;;;5028910;28;20021;-68
2023/04/01 09:16:02;;;;;;;4.77;3.10;;;;;;;;;;5027076;28;20021;-66
2023/04/01 09:18:47;;;;;;;3.53;2.17;;;;;;;;;;5026950;28;20021;-67
2023/04/01 09:21:16;;;;;;;2.92;2.33;;;;;;;;;;5026943;28;20034;-68
2023/04/01 09:24:06;;;;;;;3.70;2.37;;;;;;;;;;5030598;28;20073;-67
2023/04/01 09:26:42;;;;;;;4.37;2.87;;;;;;;;;;5031989;28;20032;-67
2023/04/01 09:29:14;;;;;;;4.73;3.47;;;;;;;;;;5032278;28;20029;-67
2023/04/01 09:31:41;;;;;;;4.47;2.97;;;;;;;;;;5032251;28;20049;-67
2023/04/01 09:34:20;;;;;;;4.40;2.57;;;;;;;;;;5031954;28;20030;-67
2023/04/01 09:36:51;;;;;;;3.80;2.50;;;;;;;;;;5026391;28;20064;-68
2023/04/01 09:39:24;;;;;;;9.10;3.40;;;;;;;;;;5026805;28;20068;-67
2023/04/01 09:41:54;;;;;;;3.90;2.67;;;;;;;;;;5026835;28;20034;-67
2023/04/01 09:44:35;;;;;;;5.10;2.27;;;;;;;;;;5014764;28;20485;-68
2023/04/01 09:47:04;;;;;;;3.23;2.07;;;;;;;;;;5012181;28;20508;-67
2023/04/01 09:49:49;;;;;;;2.27;1.43;;;;;;;;;;5012041;28;20037;-67
2023/04/01 09:52:19;;;;;;;2.05;1.52;;;;;;;;;;5012472;28;20022;-67
2023/04/01 09:55:07;;;;;;;3.33;2.40;;;;;;;;;;5011972;28;20033;-66
2023/04/01 09:57:52;;;;;;;3.93;2.40;;;;;;;;;;5009776;28;20084;-67
2023/04/01 10:00:31;;;;;;;4.03;2.60;;;;;;;;;;5022824;28;20075;-67
2023/04/01 10:03:16;;;;;;;4.70;2.80;;;;;;;;;;5006849;28;20026;-67
2023/04/01 10:06:01;;;;;;;2.80;2.00;;;;;;;;;;5006523;28;20034;-67
2023/04/01 10:08:40;;;;;;;4.60;2.90;;;;;;;;;;5010713;28;20026;-67
2023/04/01 10:11:16;;;;;;;2.70;1.77;;;;;;;;;;5011837;28;20477;-67
2023/04/01 10:14:12;;;;;;;5.00;2.30;;;;;;;;;;5012039;28;20026;-67
2023/04/01 10:16:50;;;;;;;4.22;2.35;;;;;;;;;;4999165;28;20041;-67
2023/04/01 10:19:35;;;;;;;2.77;2.03;;;;;;;;;;5017250;28;20029;-67
2023/04/01 10:22:20;;;;;;;4.18;2.80;;;;;;;;;;5029833;28;20512;-66
2023/04/01 10:25:05;;;;;;;4.82;2.70;;;;;;;;;;5023866;28;20499;-67
2023/04/01 10:27:32;;;;;;;;;;;;;;;;;;5010670;28;20026;-67
2023/04/01 10:29:58;;;;;;;2.40;2.00;;;;;;;;;;5015382;28;19916;-67
2023/04/01 10:32:25;;;;;;;5.30;2.23;;;;;;;;;;5035267;28;20029;-67
2023/04/01 10:35:21;;;;;;;2.50;1.73;;;;;;;;;;5034393;28;20068;-70
2023/04/01 10:37:54;;;;;;;2.30;1.90;;;;;;;;;;5035250;28;20033;-67
2023/04/01 10:40:52;;;;;;;4.90;2.50;;;;;;;;;;5021447;28;20117;-67
2023/04/01 10:43:25;;;;;;;3.20;1.87;;;;;;;;;;5010375;28;20113;-67
2023/04/01 10:46:00;;;;;;;2.80;2.13;;;;;;;;;;5009579;28;20038;-67
2023/04/01 10:48:30;;;;;;;3.87;2.67;;;;;;;;;;5009957;28;20385;-67
2023/04/01 10:51:26;;;;;;;3.20;2.23;;;;;;;;;;5026227;28;20021;-66
2023/04/01 10:54:11;;;;;;;2.93;1.90;;;;;;;;;;5026154;28;20388;-67
2023/04/01 10:56:41;;;;;;;3.90;2.47;;;;;;;;;;5014991;28;20053;-67
2023/04/01 10:59:16;;;;;;;3.40;2.27;;;;;;;;;;5015170;28;20079;-67
2023/04/01 11:01:49;;;;;;;2.37;1.83;;;;;;;;;;5034778;28;20028;-67
2023/04/01 11:04:34;;;;;;;3.70;2.73;;;;;;;;;;5016597;28;20120;-67
2023/04/01 11:07:01;;;;;;;;;;;;;;;;;;5009906;28;20062;-66
2023/04/01 11:09:32;;;;;;;3.27;2.17;;;;;;;;;;5009174;28;19913;-67
2023/04/01 11:12:08;;;;;;;6.40;2.87;;;;;;;;;;5009596;28;20022;-67
2023/04/01 11:14:38;;;;;;;4.53;2.30;;;;;;;;;;5011391;28;20037;-66
2023/04/01 11:17:22;;;;;;;7.20;2.63;;;;;;;;;;5014608;28;20041;-66
2023/04/01 11:19:49;;;;;;;3.23;2.20;;;;;;;;;;5019911;28;20104;-67
2023/04/01 11:22:21;;;;;;;4.80;2.20;;;;;;;;;;5033829;28;20040;-67
2023/04/01 11:25:08;;;;;;;13.20;3.00;;;;;;;;;;5033871;28;20033;-66
2023/04/01 11:27:44;;;;;;;1.83;1.50;;;;;;;;;;5030467;28;20033;-67
2023/04/01 11:30:30;;;;;;;3.33;2.60;;;;;;;;;;5022270;28;20025;-67
2023/04/01 11:33:05;;;;;;;7.35;2.67;;;;;;;;;;5009148;28;20033;-67
2023/04/01 11:35:47;;;;;;;4.57;2.67;;;;;;;;;;5020698;28;20550;-66
2023/04/01 11:38:40;;;;;;;2.57;2.13;;;;;;;;;;5033191;28;20120;-66
2023/04/01 11:41:29;;;;;;;8.10;2.83;;;;;;;;;;5014542;28;20034;-67
2023/04/01 11:43:56;;;;;;;6.47;2.43;;;;;;;;;;5014171;28;20022;-66
2023/04/01 11:46:22;;;;;;;4.37;3.10;;;;;;;;;;5013886;28;20033;-67
2023/04/01 11:49:24;;;;;;;3.53;2.43;;;;;;;;;;5012503;28;20054;-66
2023/04/01 11:52:00;;;;;;;8.77;2.23;;;;;;;;;;4890422;29;20064;-67
2023/04/01 11:54:45;;;;;;;4.07;2.47;;;;;;;;;;4992630;28;20378;-67
2023/04/01 11:57:30;;;;;;;2.85;1.90;;;;;;;;;;5008528;28;20026;-66
2023/04/01 12:00:00;;;;;;;2.92;2.13;;;;;;;;;;5017506;28;20021;-67
2023/04/01 12:02:26;;;;;;;2.33;1.63;;;;;;;;;;5033630;28;20420;-67
2023/04/01 12:04:59;;;;;;;3.47;2.53;;;;;;;;;;5033220;28;20128;-66
2023/04/01 12:07:28;;;;;;;4.00;2.47;;;;;;;;;;5033363;28;20053;-67
2023/04/01 12:10:18;;;;;;;2.53;2.13;;;;;;;;;;5024287;28;20373;-67
2023/04/01 12:13:03;;;;;;;2.73;2.13;;;;;;;;;;5008416;28;20045;-67
2023/04/01 12:15:37;;;;;;;4.35;2.42;;;;;;;;;;5008419;28;20504;-67
2023/04/01 12:18:22;;;;;;;2.63;2.10;;;;;;;;;;5009011;28;20436;-67
2023/04/01 12:20:53;;;;;;;3.85;2.33;;;;;;;;;;5018659;28;20040;-67
2023/04/01 12:23:20;;;;;;;2.83;2.27;;;;;;;;;;5032819;28;20014;-67
2023/04/01 12:26:04;;;;;;;4.33;1.97;;;;;;;;;;5020034;28;20042;-66
2023/04/01 12:28:50;;;;;;;6.25;3.00;;;;;;;;;;5013262;28;20026;-66
2023/04/01 12:31:32;;;;;;;3.53;1.83;;;;;;;;;;5025614;28;20030;-66
2023/04/01 12:33:58;;;;;;;3.83;2.40;;;;;;;;;;5030357;28;20021;-67
2023/04/01 12:36:38;;;;;;;3.57;2.57;;;;;;;;;;5026710;28;20060;-67
2023/04/01 12:39:05;;;;;;;6.43;3.63;;;;;;;;;;5007907;28;20026;-67
2023/04/01 12:41:38;;;;;;;3.90;2.43;;;;;;;;;;5012935;28;20477;-67
2023/04/01 12:44:17;;;;;;;3.43;2.53;;;;;;;;;;5019668;28;20038;-66
2023/04/01 12:46:52;;;;;;;2.27;1.77;;;;;;;;;;5012604;28;20500;-67
2023/04/01 12:49:28;;;;;;;3.92;2.17;;;;;;;;;;5024457;28;20135;-67
2023/04/01 12:52:13;;;;;;;8.30;2.53;;;;;;;;;;5012896;28;20097;-66
2023/04/01 12:54:42;;;;;;;6.43;3.63;;;;;;;;;;5012444;28;20038;-67
2023/04/01 12:57:18;;;;;;;7.17;2.80;;;;;;;;;;5008133;28;20084;-66
2023/04/01 12:59:54;;;;;;;3.97;2.80;;;;;;;;;;5007387;28;20031;-68
2023/04/01 13:02:46;;;;;;;2.90;1.83;;;;;;;;;;5007290;28;20112;-66
2023/04/01 13:05:13;;;;;;;5.93;2.13;;;;;;;;;;5018412;28;20516;-67
2023/04/01 13:07:58;;;;;;;4.50;2.37;;;;;;;;;;5032026;28;20496;-66
2023/04/01 13:10:47;;;;;;;3.85;2.53;;;;;;;;;;5031935;28;20029;-67
2023/04/01 13:13:17;;;;;;;2.90;2.00;;;;;;;;;;5028875;28;20026;-67
2023/04/01 13:16:07;;;;;;;27.70;14.90;;;;;;;;;;5012471;28;20027;-67
2023/04/01 13:18:34;;;;;;;7.97;6.30;;;;;;;;;;4948784;29;20127;-67
2023/04/01 13:21:08;;;;;;;4.17;3.47;;;;;;;;;;4999772;28;20505;-68
2023/04/01 13:23:40;;;;;;;8.57;4.15;;;;;;;;;;5007296;28;20076;-67
2023/04/01 13:26:19;;;;;;;7.47;3.50;;;;;;;;;;5006948;28;20113;-67
2023/04/01 13:28:52;;;;;;;5.03;3.63;;;;;;;;;;5009823;28;20091;-67
2023/04/01 13:31:33;;;;;;;5.57;3.43;;;;;;;;;;5018170;28;20120;-67
2023/04/01 13:34:15;;;;;;;4.63;3.30;;;;;;;;;;5030364;28;20423;-67
2023/04/01 13:36:44;;;;;;;6.73;4.30;;;;;;;;;;5011923;28;20088;-67
2023/04/01 13:39:46;;;;;;;31.60;3.27;;;;;;;;;;5011805;28;20021;-67
2023/04/01 13:42:31;;;;;;;4.03;2.43;;;;;;;;;;4965444;28;20041;-68
2023/04/01 13:45:18;;;;;;;3.47;2.45;;;;;;;;;;5011478;28;20416;-67
2023/04/01 13:48:03;;;;;;;25.57;2.83;;;;;;;;;;5026353;28;20029;-69
2023/04/01 13:50:48;;;;;;;4.60;3.20;;;;;;;;;;5019834;28;20033;-68
2023/04/01 13:53:14;;;;;;;11.52;2.67;;;;;;;;;;5013971;28;20041;-68
2023/04/01 13:55:49;;;;;;;5.83;2.90;;;;;;;;;;5016167;28;20029;-68
2023/04/01 13:58:24;;;;;;;11.57;3.75;;;;;;;;;;5016065;28;20050;-68
2023/04/01 14:01:07;;;;;;;5.93;3.67;;;;;;;;;;5015392;28;20022;-68
2023/04/01 14:03:52;;;;;;;9.93;5.47;;;;;;;;;;5021483;28;20026;-68
2023/04/01 14:06:26;;;;;;;20.13;5.25;;;;;;;;;;5010868;28;20362;-68
2023/04/01 14:09:02;;;;;;;8.73;5.00;;;;;;;;;;5010406;28;20080;-68
2023/04/01 14:11:31;;;;;;;11.50;5.70;;;;;;;;;;5010057;28;20064;-68
2023/04/01 14:14:07;;;;;;;9.47;6.53;;;;;;;;;;5027723;28;20479;-68
2023/04/01 14:16:43;;;;;;;9.07;5.63;;;;;;;;;;5032628;28;20032;-67
2023/04/01 14:19:29;;;;;;;12.93;5.97;;;;;;;;;;5019033;28;20052;-68
2023/04/01 14:21:56;;;;;;;12.53;6.47;;;;;;;;;;5027954;28;20026;-69
2023/04/01 14:24:29;;;;;;;7.87;4.87;;;;;;;;;;5035081;28;20029;-69
2023/04/01 14:27:01;;;;;;;8.23;4.77;;;;;;;;;;5010104;28;20053;-67
2023/04/01 14:29:46;;;;;;;15.10;4.37;;;;;;;;;;5009918;28;20022;-68
2023/04/01 14:32:13;;;;;;;;;;;;;;;;;;5010709;28;20030;-67
2023/04/01 14:34:46;;;;;;;7.37;4.33;;;;;;;;;;5010497;28;20304;-69
2023/04/01 14:37:24;;;;;;;8.85;5.28;;;;;;;;;;5019976;28;20024;-69
2023/04/01 14:40:09;;;;;;;5.93;3.20;;;;;;;;;;5035170;28;20501;-68
2023/04/01 14:42:39;;;;;;;7.77;4.67;;;;;;;;;;5035106;28;20392;-68
2023/04/01 14:45:19;;;;;;;14.10;3.83;;;;;;;;;;5033838;28;20044;-69
2023/04/01 14:47:55;;;;;;;5.50;4.03;;;;;;;;;;5032087;28;20057;-69
2023/04/01 14:50:23;;;;;;;7.90;5.17;;;;;;;;;;5029456;28;20056;-69
2023/04/01 14:53:08;;;;;;;14.67;5.13;;;;;;;;;;5029317;28;20033;-69
2023/04/01 14:55:35;;;;;;;6.20;4.40;;;;;;;;;;5029353;28;20025;-69
2023/04/01 14:58:18;;;;;;;5.43;3.77;;;;;;;;;;5032042;28;20091;-69
2023/04/01 15:00:59;;;;;;;5.80;4.23;;;;;;;;;;5034806;28;20024;-69
2023/04/01 15:03:32;;;;;;;10.70;5.13;;;;;;;;;;5034205;28;20028;-68
2023/04/01 15:06:02;;;;;;;7.03;4.53;;;;;;;;;;5033686;28;20029;-69
2023/04/01 15:08:37;;;;;;;12.07;5.33;;;;;;;;;;5034761;28;20029;-69
2023/04/01 15:11:07;;;;;;;9.97;4.60;;;;;;;;;;5029747;28;20022;-69
2023/04/01 15:13:40;;;;;;;27.07;4.57;;;;;;;;;;5032594;28;20103;-69
2023/04/01 15:16:28;;;;;;;10.53;4.83;;;;;;;;;;5049023;28;20029;-69
2023/04/01 15:19:01;;;;;;;8.55;4.47;;;;;;;;;;5048740;28;20371;-68